Time;durP1;ratioP1;P1;durP2;ratioP2;P2;SDS_P1;SDS_P2;PMS_P1;PMS_P2;Temp;Humidity;BMP_temperature;BMP_pressure;BME280_temperature;BME280_humidity;BME280_pressure;Samples;Min_cycle;Max_cycle;Signal;HPM_P1;HPM_P2
2022/10/15 00:00:25;;;;;;;17.17;12.00;;;;;;;;;;5048031;28;20029;-82
2022/10/15 00:02:51;;;;;;;17.27;11.32;;;;;;;;;;5033096;28;20437;-82
2022/10/15 00:05:16;;;;;;;16.80;10.88;;;;;;;;;;5042603;28;20024;-82
2022/10/15 00:07:42;;;;;;;18.60;10.68;;;;;;;;;;5033356;28;20033;-82
2022/10/15 00:10:07;;;;;;;15.50;10.40;;;;;;;;;;5032035;28;20029;-82
2022/10/15 00:12:33;;;;;;;16.65;11.55;;;;;;;;;;5036084;28;20473;-82
2022/10/15 00:14:58;;;;;;;16.23;10.90;;;;;;;;;;5034278;28;20027;-82
2022/10/15 00:17:23;;;;;;;17.48;11.48;;;;;;;;;;5034847;28;20491;-82
2022/10/15 00:19:49;;;;;;;16.05;11.13;;;;;;;;;;5028682;28;20073;-82
2022/10/15 00:22:14;;;;;;;18.10;11.88;;;;;;;;;;5035361;28;20025;-82
2022/10/15 00:24:40;;;;;;;16.27;11.32;;;;;;;;;;5036760;28;20551;-82
2022/10/15 00:27:05;;;;;;;16.40;11.05;;;;;;;;;;5029915;28;20392;-81
2022/10/15 00:29:30;;;;;;;18.55;11.98;;;;;;;;;;5029716;28;20056;-82
2022/10/15 00:31:56;;;;;;;17.45;11.35;;;;;;;;;;5033356;28;20017;-82
2022/10/15 00:34:21;;;;;;;18.63;12.02;;;;;;;;;;5031990;28;20029;-82
2022/10/15 00:36:49;;;;;;;18.48;12.73;;;;;;;;;;5033050;28;20028;-82
2022/10/15 00:39:15;;;;;;;18.13;12.27;;;;;;;;;;5033144;28;20064;-82
2022/10/15 00:41:42;;;;;;;18.52;12.60;;;;;;;;;;5036485;28;20072;-82
2022/10/15 00:44:20;;;;;;;19.40;12.68;;;;;;;;;;5035560;28;20032;-82
2022/10/15 00:46:48;;;;;;;19.63;12.68;;;;;;;;;;5032818;28;20021;-81
2022/10/15 00:49:28;;;;;;;22.58;13.85;;;;;;;;;;5030680;28;20132;-82
2022/10/15 00:51:59;;;;;;;22.75;14.23;;;;;;;;;;5036766;28;20446;-81
2022/10/15 00:54:26;;;;;;;22.52;13.43;;;;;;;;;;5034081;28;20091;-81
2022/10/15 00:56:54;;;;;;;23.50;14.38;;;;;;;;;;5029998;28;20111;-82
2022/10/15 00:59:22;;;;;;;21.50;12.95;;;;;;;;;;5049680;28;20024;-81
2022/10/15 01:01:48;;;;;;;22.77;13.88;;;;;;;;;;5028291;28;20040;-81
2022/10/15 01:04:14;;;;;;;20.20;12.80;;;;;;;;;;5035818;28;20028;-82
2022/10/15 01:06:39;;;;;;;21.23;12.98;;;;;;;;;;5037825;28;20392;-81
2022/10/15 01:09:05;;;;;;;21.98;13.82;;;;;;;;;;5043693;28;20499;-82
2022/10/15 01:11:49;;;;;;;23.10;13.48;;;;;;;;;;5032976;28;20024;-82
2022/10/15 01:14:52;;;;;;;25.08;14.05;;;;;;;;;;5042336;28;20094;-81
2022/10/15 01:17:33;;;;;;;22.63;13.60;;;;;;;;;;5034874;28;20385;-82
2022/10/15 01:20:33;;;;;;;21.17;12.77;;;;;;;;;;5037439;28;20291;-82
2022/10/15 01:23:28;;;;;;;22.35;13.73;;;;;;;;;;5026405;28;20540;-82
2022/10/15 01:26:13;;;;;;;20.92;12.93;;;;;;;;;;5036137;28;20460;-81
2022/10/15 01:29:15;;;;;;;22.38;13.25;;;;;;;;;;5036034;28;20032;-81
2022/10/15 01:32:11;;;;;;;23.83;14.73;;;;;;;;;;5034766;28;20068;-82
2022/10/15 01:35:14;;;;;;;19.75;12.57;;;;;;;;;;5019561;28;20154;-82
2022/10/15 01:37:43;;;;;;;;;;;;;;;;;;5018851;28;20045;-81
2022/10/15 01:40:30;;;;;;;22.77;13.23;;;;;;;;;;5035504;28;19966;-81
2022/10/15 01:43:03;;;;;;;22.48;13.55;;;;;;;;;;5032963;28;20033;-82
2022/10/15 01:45:36;;;;;;;22.65;13.60;;;;;;;;;;5034824;28;20532;-81
2022/10/15 01:48:07;;;;;;;20.45;13.73;;;;;;;;;;5028358;28;20520;-82
2022/10/15 01:50:34;;;;;;;21.23;13.13;;;;;;;;;;5033484;28;20021;-82
2022/10/15 01:53:01;;;;;;;19.83;12.48;;;;;;;;;;5030576;28;20032;-82
2022/10/15 01:55:27;;;;;;;23.15;13.95;;;;;;;;;;5032363;28;20590;-81
2022/10/15 01:57:56;;;;;;;21.52;13.57;;;;;;;;;;5043174;28;20498;-82
2022/10/15 02:00:21;;;;;;;20.38;13.80;;;;;;;;;;5034450;28;20401;-82
2022/10/15 02:02:47;;;;;;;18.75;12.98;;;;;;;;;;5036456;28;20029;-82
2022/10/15 02:05:24;;;;;;;18.40;12.90;;;;;;;;;;5037602;28;20041;-81
2022/10/15 02:08:27;;;;;;;21.10;14.70;;;;;;;;;;5032754;28;20036;-82
2022/10/15 02:11:07;;;;;;;20.08;12.73;;;;;;;;;;5039830;28;20373;-81
2022/10/15 02:14:04;;;;;;;20.45;12.95;;;;;;;;;;5036190;28;20121;-82
2022/10/15 02:16:35;;;;;;;19.23;13.02;;;;;;;;;;5038425;28;20036;-82
2022/10/15 02:19:37;;;;;;;19.10;13.27;;;;;;;;;;5036546;28;20056;-82
2022/10/15 02:22:33;;;;;;;20.38;13.35;;;;;;;;;;5033269;28;20073;-81
2022/10/15 02:25:15;;;;;;;19.80;12.75;;;;;;;;;;5042327;28;20036;-82
2022/10/15 02:27:44;;;;;;;18.17;12.30;;;;;;;;;;5035489;28;20063;-82
2022/10/15 02:30:10;;;;;;;19.13;12.45;;;;;;;;;;5035987;28;20100;-81
2022/10/15 02:32:39;;;;;;;20.23;13.73;;;;;;;;;;5031661;28;20031;-81
2022/10/15 02:35:07;;;;;;;19.80;13.90;;;;;;;;;;5034665;28;20029;-82
2022/10/15 02:37:34;;;;;;;19.95;12.65;;;;;;;;;;5034923;28;20029;-82
2022/10/15 02:39:59;;;;;;;20.25;13.48;;;;;;;;;;5038314;28;20029;-81
2022/10/15 02:42:25;;;;;;;19.73;12.50;;;;;;;;;;5037203;28;20028;-82
2022/10/15 02:44:51;;;;;;;19.75;13.50;;;;;;;;;;5038427;28;20090;-81
2022/10/15 02:47:17;;;;;;;19.60;12.55;;;;;;;;;;5034076;28;20024;-81
2022/10/15 02:49:42;;;;;;;17.35;12.48;;;;;;;;;;5035555;28;20415;-82
2022/10/15 02:52:07;;;;;;;18.23;13.25;;;;;;;;;;5026944;28;20025;-82
2022/10/15 02:54:33;;;;;;;19.20;12.38;;;;;;;;;;5036218;28;20397;-81
2022/10/15 02:56:58;;;;;;;18.13;13.05;;;;;;;;;;5036668;28;20033;-81
2022/10/15 02:59:24;;;;;;;17.25;12.70;;;;;;;;;;5037996;28;20025;-82
2022/10/15 03:01:49;;;;;;;19.48;12.98;;;;;;;;;;5034256;28;20037;-82
2022/10/15 03:04:14;;;;;;;17.60;12.43;;;;;;;;;;5041185;28;20370;-81
2022/10/15 03:06:40;;;;;;;18.00;12.30;;;;;;;;;;5029514;28;21838;-82
2022/10/15 03:09:05;;;;;;;19.95;13.55;;;;;;;;;;5036172;28;20032;-82
2022/10/15 03:11:30;;;;;;;17.35;12.35;;;;;;;;;;5030623;28;20440;-81
2022/10/15 03:13:56;;;;;;;17.42;12.45;;;;;;;;;;5039394;28;20476;-81
2022/10/15 03:16:21;;;;;;;18.50;13.35;;;;;;;;;;5032662;28;20029;-81
2022/10/15 03:18:46;;;;;;;18.88;12.77;;;;;;;;;;5032736;28;20030;-82
2022/10/15 03:21:12;;;;;;;17.15;12.55;;;;;;;;;;5038935;28;20041;-81
2022/10/15 03:23:37;;;;;;;19.55;13.00;;;;;;;;;;5037237;28;20465;-81
2022/10/15 03:26:02;;;;;;;17.42;12.75;;;;;;;;;;5033908;28;20035;-82
2022/10/15 03:28:28;;;;;;;17.20;12.30;;;;;;;;;;5033367;28;20029;-82
2022/10/15 03:30:53;;;;;;;19.00;12.93;;;;;;;;;;5031279;28;20039;-82
2022/10/15 03:33:19;;;;;;;18.13;13.00;;;;;;;;;;5041368;28;20032;-82
2022/10/15 03:35:44;;;;;;;19.40;13.80;;;;;;;;;;5030702;28;20029;-81
2022/10/15 03:38:10;;;;;;;18.35;12.50;;;;;;;;;;5035578;28;20433;-82
2022/10/15 03:40:35;;;;;;;18.70;13.55;;;;;;;;;;5031555;28;20029;-82
2022/10/15 03:43:00;;;;;;;19.90;13.38;;;;;;;;;;5034067;28;20031;-82
2022/10/15 03:45:26;;;;;;;19.73;13.25;;;;;;;;;;5022942;28;20033;-81
2022/10/15 03:47:52;;;;;;;17.58;13.77;;;;;;;;;;5032748;28;20035;-81
2022/10/15 03:50:17;;;;;;;19.10;13.30;;;;;;;;;;5034386;28;20029;-81
2022/10/15 03:52:43;;;;;;;19.50;13.77;;;;;;;;;;5040792;28;20029;-82
2022/10/15 03:55:09;;;;;;;18.35;12.27;;;;;;;;;;5042364;28;20017;-82
2022/10/15 03:57:36;;;;;;;21.45;13.18;;;;;;;;;;5035907;28;20029;-82
2022/10/15 04:00:04;;;;;;;18.48;12.68;;;;;;;;;;5035157;28;20017;-81
2022/10/15 04:02:30;;;;;;;19.73;12.98;;;;;;;;;;5034433;28;20116;-81
2022/10/15 04:04:56;;;;;;;15.95;11.77;;;;;;;;;;5038034;28;20167;-82
2022/10/15 04:07:22;;;;;;;17.30;11.98;;;;;;;;;;5036514;28;20606;-82
2022/10/15 04:09:47;;;;;;;17.10;12.18;;;;;;;;;;5031305;28;20028;-82
2022/10/15 04:12:13;;;;;;;17.42;12.88;;;;;;;;;;5031613;28;20103;-82
2022/10/15 04:14:39;;;;;;;16.13;12.60;;;;;;;;;;5031661;28;20439;-82
2022/10/15 04:17:04;;;;;;;18.42;13.50;;;;;;;;;;5026858;28;20079;-81
2022/10/15 04:19:29;;;;;;;16.90;12.18;;;;;;;;;;5037344;28;20509;-81
2022/10/15 04:21:55;;;;;;;19.63;12.48;;;;;;;;;;5028138;28;20068;-81
2022/10/15 04:24:21;;;;;;;19.35;13.75;;;;;;;;;;5034638;28;20041;-81
2022/10/15 04:26:46;;;;;;;19.52;12.93;;;;;;;;;;5036165;28;20025;-81
2022/10/15 04:29:12;;;;;;;20.98;14.25;;;;;;;;;;5039324;28;20049;-81
2022/10/15 04:31:37;;;;;;;16.73;12.52;;;;;;;;;;5032552;28;20389;-82
2022/10/15 04:34:03;;;;;;;19.20;12.57;;;;;;;;;;5041200;28;20040;-82
2022/10/15 04:36:29;;;;;;;18.77;13.68;;;;;;;;;;5036897;28;20029;-82
2022/10/15 04:38:54;;;;;;;17.10;12.35;;;;;;;;;;5038483;28;20031;-82
2022/10/15 04:41:20;;;;;;;19.27;13.25;;;;;;;;;;5037275;28;20029;-82
2022/10/15 04:43:45;;;;;;;18.17;12.38;;;;;;;;;;5039703;28;20025;-81
2022/10/15 04:46:11;;;;;;;16.25;11.63;;;;;;;;;;5032585;28;20033;-81
2022/10/15 04:48:37;;;;;;;17.05;12.55;;;;;;;;;;5043330;28;20504;-82
2022/10/15 04:51:15;;;;;;;18.73;12.48;;;;;;;;;;5037222;28;20029;-82
2022/10/15 04:53:40;;;;;;;22.02;13.00;;;;;;;;;;5040537;28;20036;-82
2022/10/15 04:56:11;;;;;;;18.30;13.10;;;;;;;;;;5034929;28;20029;-82
2022/10/15 04:58:37;;;;;;;15.73;11.82;;;;;;;;;;5033202;28;20031;-82
2022/10/15 05:01:04;;;;;;;16.00;12.35;;;;;;;;;;5033247;28;20026;-82
2022/10/15 05:03:30;;;;;;;16.77;12.25;;;;;;;;;;5040458;28;20029;-81
2022/10/15 05:06:03;;;;;;;19.23;13.13;;;;;;;;;;5034537;28;20393;-82
2022/10/15 05:08:30;;;;;;;15.73;11.50;;;;;;;;;;5035923;28;20029;-81
2022/10/15 05:11:03;;;;;;;17.70;12.38;;;;;;;;;;5031456;28;20184;-82
2022/10/15 05:13:30;;;;;;;20.13;12.50;;;;;;;;;;5033602;28;20029;-81
2022/10/15 05:15:55;;;;;;;18.88;12.90;;;;;;;;;;5036861;28;20021;-82
2022/10/15 05:18:21;;;;;;;16.05;11.32;;;;;;;;;;5034212;28;20036;-81
2022/10/15 05:20:47;;;;;;;16.85;11.68;;;;;;;;;;5033834;28;20045;-81
2022/10/15 05:23:12;;;;;;;16.83;10.98;;;;;;;;;;5037039;28;20029;-82
2022/10/15 05:25:38;;;;;;;18.20;11.65;;;;;;;;;;5039408;28;20377;-81
2022/10/15 05:28:03;;;;;;;17.52;11.95;;;;;;;;;;5031268;28;20028;-82
2022/10/15 05:30:29;;;;;;;15.70;10.38;;;;;;;;;;5033970;28;21968;-81
2022/10/15 05:32:54;;;;;;;18.15;12.07;;;;;;;;;;5030479;28;20052;-81
2022/10/15 05:35:20;;;;;;;15.77;10.93;;;;;;;;;;5029381;28;20082;-81
2022/10/15 05:37:47;;;;;;;15.63;10.32;;;;;;;;;;5032655;28;20080;-81
2022/10/15 05:40:12;;;;;;;16.30;10.95;;;;;;;;;;5032518;28;20029;-82
2022/10/15 05:42:38;;;;;;;16.02;10.68;;;;;;;;;;5033502;28;20539;-81
2022/10/15 05:45:04;;;;;;;15.60;10.30;;;;;;;;;;5032499;28;20025;-82
2022/10/15 05:47:30;;;;;;;16.25;10.88;;;;;;;;;;5034709;28;20075;-81
2022/10/15 05:49:56;;;;;;;15.27;10.02;;;;;;;;;;5033698;28;20017;-81
2022/10/15 05:52:21;;;;;;;14.75;9.90;;;;;;;;;;5039234;28;20025;-81
2022/10/15 05:54:46;;;;;;;16.63;10.05;;;;;;;;;;5040503;28;20817;-82
2022/10/15 05:57:12;;;;;;;15.52;9.85;;;;;;;;;;5033386;28;20128;-82
2022/10/15 05:59:37;;;;;;;16.08;9.95;;;;;;;;;;5041162;28;20025;-82
2022/10/15 06:02:02;;;;;;;15.77;10.75;;;;;;;;;;5023647;28;20035;-81
2022/10/15 06:04:28;;;;;;;16.30;10.25;;;;;;;;;;5027141;28;20501;-81
2022/10/15 06:06:53;;;;;;;15.45;10.30;;;;;;;;;;5033426;28;20032;-82
2022/10/15 06:09:18;;;;;;;14.57;9.95;;;;;;;;;;5031591;28;20030;-81
2022/10/15 06:11:44;;;;;;;14.90;9.95;;;;;;;;;;5028709;28;20044;-81
2022/10/15 06:14:10;;;;;;;14.95;9.43;;;;;;;;;;5029431;28;20120;-81
2022/10/15 06:16:35;;;;;;;14.60;10.10;;;;;;;;;;5032512;28;20029;-81
2022/10/15 06:19:01;;;;;;;15.20;9.88;;;;;;;;;;5030256;28;20402;-81
2022/10/15 06:21:27;;;;;;;19.85;11.48;;;;;;;;;;5032346;28;20028;-82
2022/10/15 06:23:52;;;;;;;16.42;10.30;;;;;;;;;;5029632;28;20029;-81
2022/10/15 06:26:17;;;;;;;17.02;9.90;;;;;;;;;;5035748;28;20428;-81
2022/10/15 06:28:43;;;;;;;14.63;8.65;;;;;;;;;;5034173;28;20431;-81
2022/10/15 06:31:08;;;;;;;13.77;8.57;;;;;;;;;;5033831;28;20025;-81
2022/10/15 06:33:34;;;;;;;17.60;11.25;;;;;;;;;;5024067;28;20021;-81
2022/10/15 06:36:05;;;;;;;17.65;10.05;;;;;;;;;;5028369;28;20033;-81
2022/10/15 06:38:31;;;;;;;18.95;10.60;;;;;;;;;;5035507;28;20485;-82
2022/10/15 06:40:57;;;;;;;18.92;11.00;;;;;;;;;;5030139;28;20055;-81
2022/10/15 06:43:23;;;;;;;13.25;8.73;;;;;;;;;;5028721;28;20492;-81
2022/10/15 06:45:50;;;;;;;15.57;10.05;;;;;;;;;;5028401;28;20029;-81
2022/10/15 06:48:16;;;;;;;16.35;9.68;;;;;;;;;;5029010;28;20535;-81
2022/10/15 06:50:42;;;;;;;17.23;9.95;;;;;;;;;;5029665;28;20033;-81
2022/10/15 06:53:07;;;;;;;16.73;10.00;;;;;;;;;;5033007;28;20029;-81
2022/10/15 06:55:33;;;;;;;16.33;9.40;;;;;;;;;;5028591;28;20040;-82
2022/10/15 06:57:59;;;;;;;14.80;9.60;;;;;;;;;;5031229;28;20025;-81
2022/10/15 07:00:24;;;;;;;18.33;10.30;;;;;;;;;;5029797;28;20036;-81
2022/10/15 07:02:50;;;;;;;16.05;9.95;;;;;;;;;;5025292;28;20071;-81
2022/10/15 07:05:16;;;;;;;15.85;9.30;;;;;;;;;;5036889;28;20382;-82
2022/10/15 07:07:42;;;;;;;16.80;9.35;;;;;;;;;;5033471;28;20116;-81
2022/10/15 07:10:08;;;;;;;14.52;8.57;;;;;;;;;;5035801;28;20590;-81
2022/10/15 07:12:34;;;;;;;15.65;10.00;;;;;;;;;;5036898;28;20044;-81
2022/10/15 07:14:59;;;;;;;16.17;9.60;;;;;;;;;;5035606;28;20025;-81
2022/10/15 07:17:24;;;;;;;17.38;10.13;;;;;;;;;;5032084;28;20021;-81
2022/10/15 07:19:50;;;;;;;16.52;9.63;;;;;;;;;;5033080;28;20041;-81
2022/10/15 07:22:15;;;;;;;16.23;9.15;;;;;;;;;;5036869;28;20033;-81
2022/10/15 07:24:41;;;;;;;16.73;10.13;;;;;;;;;;5019832;28;20059;-82
2022/10/15 07:27:07;;;;;;;20.33;10.27;;;;;;;;;;5030146;28;20056;-81
2022/10/15 07:29:32;;;;;;;17.08;9.88;;;;;;;;;;5034389;28;20082;-81
2022/10/15 07:31:58;;;;;;;17.83;10.90;;;;;;;;;;5029108;28;20021;-81
2022/10/15 07:34:24;;;;;;;18.13;10.07;;;;;;;;;;5031732;28;20026;-81
2022/10/15 07:36:49;;;;;;;16.52;10.15;;;;;;;;;;5032298;28;20029;-82
2022/10/15 07:39:17;;;;;;;17.25;10.07;;;;;;;;;;5030045;28;20028;-81
2022/10/15 07:41:43;;;;;;;17.42;10.82;;;;;;;;;;5038115;28;20033;-81
2022/10/15 07:44:08;;;;;;;20.85;11.50;;;;;;;;;;5043425;28;20032;-81
2022/10/15 07:46:34;;;;;;;18.48;11.05;;;;;;;;;;5033328;28;20386;-81
2022/10/15 07:49:00;;;;;;;20.85;12.70;;;;;;;;;;5034535;28;20033;-81
2022/10/15 07:51:25;;;;;;;25.20;12.55;;;;;;;;;;5046238;28;20048;-81
2022/10/15 07:53:51;;;;;;;21.10;13.23;;;;;;;;;;5038318;28;20493;-81
2022/10/15 07:56:16;;;;;;;21.48;12.45;;;;;;;;;;5033918;28;20031;-81
2022/10/15 07:58:42;;;;;;;22.88;13.25;;;;;;;;;;5035432;28;20033;-81
2022/10/15 08:01:09;;;;;;;20.13;12.52;;;;;;;;;;5032562;28;20029;-81
2022/10/15 08:03:36;;;;;;;22.30;12.75;;;;;;;;;;5033629;28;20021;-81
2022/10/15 08:06:03;;;;;;;24.25;14.00;;;;;;;;;;5034525;28;20036;-81
2022/10/15 08:08:29;;;;;;;24.30;13.32;;;;;;;;;;5038843;28;20511;-81
2022/10/15 08:10:55;;;;;;;20.90;11.73;;;;;;;;;;5036925;28;20033;-82
2022/10/15 08:13:20;;;;;;;20.85;11.90;;;;;;;;;;5042812;28;20496;-81
2022/10/15 08:15:46;;;;;;;19.33;11.80;;;;;;;;;;5036914;28;20037;-82
2022/10/15 08:18:11;;;;;;;19.85;11.75;;;;;;;;;;5039456;28;20033;-81
2022/10/15 08:20:37;;;;;;;19.70;11.68;;;;;;;;;;5032521;28;20064;-82
2022/10/15 08:23:03;;;;;;;19.35;11.65;;;;;;;;;;5036024;28;20025;-81
2022/10/15 08:25:30;;;;;;;18.00;10.75;;;;;;;;;;5035298;28;20029;-81
2022/10/15 08:27:56;;;;;;;18.75;10.98;;;;;;;;;;5036873;28;20048;-81
2022/10/15 08:30:21;;;;;;;17.08;10.45;;;;;;;;;;5032540;28;20033;-82
2022/10/15 08:32:47;;;;;;;16.95;10.35;;;;;;;;;;5040297;28;20032;-81
2022/10/15 08:35:12;;;;;;;17.35;10.00;;;;;;;;;;5039421;28;20031;-81
2022/10/15 08:37:38;;;;;;;16.75;9.82;;;;;;;;;;5039279;28;20079;-81
2022/10/15 08:40:05;;;;;;;16.27;9.68;;;;;;;;;;5035732;28;20571;-81
2022/10/15 08:42:40;;;;;;;15.02;9.35;;;;;;;;;;5039042;28;20033;-81
2022/10/15 08:45:16;;;;;;;14.68;8.57;;;;;;;;;;5051157;28;20384;-81
2022/10/15 08:47:42;;;;;;;16.52;9.18;;;;;;;;;;5035421;28;20037;-81
2022/10/15 08:50:25;;;;;;;13.80;8.07;;;;;;;;;;5039433;28;20025;-81
2022/10/15 08:52:52;;;;;;;;;;;;;;;;;;5037153;28;20488;-82
2022/10/15 08:55:19;;;;;;;12.95;7.60;;;;;;;;;;5043033;28;20357;-81
2022/10/15 08:57:45;;;;;;;14.10;8.10;;;;;;;;;;5042197;28;20160;-81
2022/10/15 09:00:20;;;;;;;12.38;7.53;;;;;;;;;;5045607;28;20109;-81
2022/10/15 09:03:09;;;;;;;13.70;7.60;;;;;;;;;;5036176;28;20029;-81
2022/10/15 09:05:49;;;;;;;11.88;6.95;;;;;;;;;;5035315;28;20037;-82
2022/10/15 09:08:25;;;;;;;12.95;7.28;;;;;;;;;;5041240;28;20040;-82
2022/10/15 09:10:59;;;;;;;14.60;7.20;;;;;;;;;;5052210;28;20032;-81
2022/10/15 09:13:29;;;;;;;11.23;7.18;;;;;;;;;;5031919;28;20041;-81
2022/10/15 09:16:18;;;;;;;13.60;7.50;;;;;;;;;;5035583;28;20472;-81
2022/10/15 09:18:48;;;;;;;10.27;6.40;;;;;;;;;;5041989;28;20029;-81
2022/10/15 09:21:17;;;;;;;10.48;6.68;;;;;;;;;;5034524;28;20037;-81
2022/10/15 09:23:45;;;;;;;12.07;6.82;;;;;;;;;;5029286;28;20037;-82
2022/10/15 09:26:54;;;;;;;10.48;6.55;;;;;;;;;;5038496;28;20033;-82
2022/10/15 09:29:28;;;;;;;11.57;6.25;;;;;;;;;;5017181;28;20490;-81
2022/10/15 09:32:03;;;;;;;11.32;6.40;;;;;;;;;;5019560;28;20037;-82
2022/10/15 09:34:41;;;;;;;9.73;5.55;;;;;;;;;;5017146;28;20029;-81
2022/10/15 09:37:23;;;;;;;11.25;6.28;;;;;;;;;;5016727;28;20033;-81
2022/10/15 09:39:57;;;;;;;9.55;6.40;;;;;;;;;;5017809;28;20045;-82
2022/10/15 09:42:29;;;;;;;9.32;5.72;;;;;;;;;;5012352;28;20036;-81
2022/10/15 09:44:58;;;;;;;11.13;6.20;;;;;;;;;;5034232;28;20026;-81
2022/10/15 09:47:32;;;;;;;9.43;5.45;;;;;;;;;;5023115;28;20033;-82
2022/10/15 09:50:08;;;;;;;10.32;5.60;;;;;;;;;;5018715;28;20425;-81
2022/10/15 09:52:45;;;;;;;11.20;5.88;;;;;;;;;;5022819;28;20091;-81
2022/10/15 09:55:38;;;;;;;10.45;6.10;;;;;;;;;;5020072;28;20080;-82
2022/10/15 09:58:18;;;;;;;9.75;5.75;;;;;;;;;;5008247;28;20470;-81
2022/10/15 10:01:04;;;;;;;10.60;5.75;;;;;;;;;;5022170;28;20037;-81
2022/10/15 10:03:33;;;;;;;9.93;5.50;;;;;;;;;;5011986;28;20026;-82
2022/10/15 10:06:10;;;;;;;9.90;5.70;;;;;;;;;;5010739;28;20035;-81
2022/10/15 10:08:50;;;;;;;10.00;5.68;;;;;;;;;;5027532;28;20091;-81
2022/10/15 10:11:16;;;;;;;8.93;5.53;;;;;;;;;;5014245;28;20405;-82
2022/10/15 10:13:47;;;;;;;10.80;5.53;;;;;;;;;;5016592;28;20241;-81
2022/10/15 10:16:15;;;;;;;9.25;5.50;;;;;;;;;;5020013;28;20359;-82
2022/10/15 10:18:49;;;;;;;10.63;5.47;;;;;;;;;;5011869;28;20029;-82
2022/10/15 10:21:45;;;;;;;10.93;5.72;;;;;;;;;;5012698;28;20500;-82
2022/10/15 10:24:17;;;;;;;13.82;6.13;;;;;;;;;;5007860;28;20036;-82
2022/10/15 10:26:44;;;;;;;11.23;5.77;;;;;;;;;;5021347;28;20029;-82
2022/10/15 10:29:19;;;;;;;9.88;6.18;;;;;;;;;;5013480;28;21748;-82
2022/10/15 10:31:49;;;;;;;9.50;5.70;;;;;;;;;;5009254;28;20028;-82
2022/10/15 10:34:20;;;;;;;11.73;5.78;;;;;;;;;;5011227;28;20509;-82
2022/10/15 10:36:51;;;;;;;10.40;5.65;;;;;;;;;;5023427;28;20465;-82
2022/10/15 10:39:16;;;;;;;9.60;5.53;;;;;;;;;;5013579;28;21525;-82
2022/10/15 10:42:00;;;;;;;11.38;5.93;;;;;;;;;;5018298;28;20029;-81
2022/10/15 10:44:45;;;;;;;8.57;4.80;;;;;;;;;;5017834;28;20406;-82
2022/10/15 10:47:14;;;;;;;9.50;4.90;;;;;;;;;;5015986;28;21898;-82
2022/10/15 10:49:42;;;;;;;9.93;5.40;;;;;;;;;;5020004;28;20017;-82
2022/10/15 10:52:34;;;;;;;8.27;4.60;;;;;;;;;;5022567;28;20022;-82
2022/10/15 10:55:18;;;;;;;7.70;5.10;;;;;;;;;;5016258;28;20125;-82
2022/10/15 10:57:48;;;;;;;6.53;4.47;;;;;;;;;;5017604;28;20029;-82
2022/10/15 11:00:54;;;;;;;8.48;4.72;;;;;;;;;;5014581;28;20208;-82
2022/10/15 11:03:38;;;;;;;7.03;4.32;;;;;;;;;;5007544;28;20030;-82
2022/10/15 11:06:24;;;;;;;6.72;3.92;;;;;;;;;;5012231;28;20030;-82
2022/10/15 11:08:56;;;;;;;6.00;4.13;;;;;;;;;;5035029;28;20040;-82
2022/10/15 11:11:32;;;;;;;9.23;3.97;;;;;;;;;;5017970;28;20032;-82
2022/10/15 11:14:51;;;;;;;6.18;3.97;;;;;;;;;;5022778;28;20454;-81
2022/10/15 11:17:26;;;;;;;6.63;4.10;;;;;;;;;;5014175;28;20045;-82
2022/10/15 11:20:05;;;;;;;6.43;3.92;;;;;;;;;;5011640;28;20183;-82
2022/10/15 11:22:47;;;;;;;6.65;4.18;;;;;;;;;;5016199;28;20492;-82
2022/10/15 11:25:32;;;;;;;8.63;4.63;;;;;;;;;;5012685;28;20029;-83
2022/10/15 11:28:22;;;;;;;6.20;4.30;;;;;;;;;;5018139;28;20362;-82
2022/10/15 11:31:02;;;;;;;6.68;4.65;;;;;;;;;;5019889;28;20029;-83
2022/10/15 11:33:40;;;;;;;6.25;4.30;;;;;;;;;;5015842;28;20111;-83
2022/10/15 11:36:24;;;;;;;6.85;4.13;;;;;;;;;;5019648;28;20407;-81
2022/10/15 11:39:26;;;;;;;5.65;3.70;;;;;;;;;;5019587;28;20537;-82
2022/10/15 11:42:03;;;;;;;6.05;3.42;;;;;;;;;;5018677;28;20026;-82
2022/10/15 11:44:52;;;;;;;5.85;3.40;;;;;;;;;;5018332;28;20087;-83
2022/10/15 11:47:31;;;;;;;5.18;3.20;;;;;;;;;;5017463;28;20026;-82
2022/10/15 11:50:12;;;;;;;4.85;3.20;;;;;;;;;;5020962;28;20065;-82
2022/10/15 11:52:40;;;;;;;5.38;3.10;;;;;;;;;;5017006;28;20032;-82
2022/10/15 11:55:41;;;;;;;4.28;3.17;;;;;;;;;;5019798;28;20021;-82
2022/10/15 11:58:30;;;;;;;5.38;3.03;;;;;;;;;;5005114;28;20494;-82
2022/10/15 12:01:02;;;;;;;5.57;2.90;;;;;;;;;;5010683;28;20037;-82
2022/10/15 12:03:32;;;;;;;4.93;2.95;;;;;;;;;;5010701;28;20034;-80
2022/10/15 12:06:10;;;;;;;4.40;3.00;;;;;;;;;;5003529;28;20128;-81
2022/10/15 12:08:38;;;;;;;4.50;2.92;;;;;;;;;;5005677;28;20040;-81
2022/10/15 12:11:22;;;;;;;3.70;2.90;;;;;;;;;;5016427;28;20437;-81
2022/10/15 12:14:24;;;;;;;3.63;2.63;;;;;;;;;;5012377;28;20144;-81
2022/10/15 12:17:01;;;;;;;3.83;2.72;;;;;;;;;;5013672;28;20489;-81
2022/10/15 12:19:47;;;;;;;5.35;3.22;;;;;;;;;;5013150;28;20058;-81
2022/10/15 12:22:31;;;;;;;4.50;3.08;;;;;;;;;;5016461;28;20026;-82
2022/10/15 12:24:56;;;;;;;3.45;2.95;;;;;;;;;;5003537;28;20025;-81
2022/10/15 12:27:25;;;;;;;4.20;3.20;;;;;;;;;;5003213;28;20395;-81
2022/10/15 12:30:12;;;;;;;5.32;3.03;;;;;;;;;;5013463;28;20018;-81
2022/10/15 12:32:46;;;;;;;4.30;3.03;;;;;;;;;;5005095;28;20034;-81
2022/10/15 12:35:14;;;;;;;4.32;3.10;;;;;;;;;;5003284;28;20033;-81
2022/10/15 12:37:43;;;;;;;4.57;3.03;;;;;;;;;;4996573;28;20057;-81
2022/10/15 12:40:32;;;;;;;4.05;3.10;;;;;;;;;;5008165;28;20025;-81
2022/10/15 12:43:02;;;;;;;3.92;3.08;;;;;;;;;;5005217;28;20045;-82
2022/10/15 12:45:34;;;;;;;5.93;3.10;;;;;;;;;;5006243;28;20037;-81
2022/10/15 12:48:03;;;;;;;3.97;2.90;;;;;;;;;;5007190;28;20029;-81
2022/10/15 12:50:31;;;;;;;5.30;2.85;;;;;;;;;;5007769;28;20117;-81
2022/10/15 12:53:01;;;;;;;4.05;2.92;;;;;;;;;;5008407;28;20780;-81
2022/10/15 12:55:33;;;;;;;4.25;3.10;;;;;;;;;;5010840;28;20033;-82
2022/10/15 12:58:05;;;;;;;4.65;3.45;;;;;;;;;;5012017;28;20130;-81
2022/10/15 13:00:39;;;;;;;5.13;3.33;;;;;;;;;;5014617;28;20021;-82
2022/10/15 13:03:22;;;;;;;5.88;3.67;;;;;;;;;;5004657;28;20030;-81
2022/10/15 13:05:48;;;;;;;5.25;3.80;;;;;;;;;;5009597;28;20080;-81
2022/10/15 13:08:25;;;;;;;5.30;3.92;;;;;;;;;;5006380;28;20034;-81
2022/10/15 13:10:56;;;;;;;5.57;3.95;;;;;;;;;;5003381;28;20030;-81
2022/10/15 13:13:26;;;;;;;5.72;4.30;;;;;;;;;;5018290;28;20599;-81
2022/10/15 13:15:57;;;;;;;5.20;3.88;;;;;;;;;;5015966;28;20474;-81
2022/10/15 13:18:23;;;;;;;5.00;3.90;;;;;;;;;;5017948;28;20460;-81
2022/10/15 13:20:53;;;;;;;5.30;3.75;;;;;;;;;;5015626;28;20108;-81
2022/10/15 13:23:29;;;;;;;5.18;3.85;;;;;;;;;;5015187;28;20029;-81
2022/10/15 13:26:19;;;;;;;4.90;3.75;;;;;;;;;;5003387;28;20777;-81
2022/10/15 13:28:46;;;;;;;4.60;3.47;;;;;;;;;;5013693;28;20116;-81
2022/10/15 13:31:34;;;;;;;4.78;3.65;;;;;;;;;;5008537;28;20390;-81
2022/10/15 13:34:19;;;;;;;4.70;3.60;;;;;;;;;;5001841;28;20677;-81
2022/10/15 13:36:44;;;;;;;5.05;4.00;;;;;;;;;;5016527;28;20052;-81
2022/10/15 13:39:22;;;;;;;5.45;3.83;;;;;;;;;;4999883;28;20120;-81
2022/10/15 13:41:48;;;;;;;5.18;3.80;;;;;;;;;;5016992;28;20036;-81
2022/10/15 13:44:21;;;;;;;5.45;3.60;;;;;;;;;;5006080;28;20032;-81
2022/10/15 13:46:46;;;;;;;;;;;;;;;;;;5015683;28;20482;-81
2022/10/15 13:49:12;;;;;;;3.50;2.20;;;;;;;;;;5013783;28;19928;-81
2022/10/15 13:51:46;;;;;;;3.80;1.30;;;;;;;;;;5010985;28;20408;-81
2022/10/15 13:54:22;;;;;;;4.97;1.52;;;;;;;;;;5010911;28;20536;-82
2022/10/15 13:56:56;;;;;;;2.08;1.15;;;;;;;;;;5014441;28;20025;-82
2022/10/15 13:59:22;;;;;;;3.70;0.90;;;;;;;;;;5008641;28;20077;-82
2022/10/15 14:01:52;;;;;;;1.83;1.00;;;;;;;;;;5005855;28;20032;-82
2022/10/15 14:04:21;;;;;;;1.80;0.90;;;;;;;;;;5024524;28;20025;-82
2022/10/15 14:07:00;;;;;;;1.88;1.10;;;;;;;;;;5014664;28;20025;-82
2022/10/15 14:09:30;;;;;;;3.35;0.80;;;;;;;;;;5014727;28;20395;-82
2022/10/15 14:11:55;;;;;;;1.77;0.90;;;;;;;;;;5009729;28;20021;-82
2022/10/15 14:14:36;;;;;;;1.45;0.80;;;;;;;;;;5008098;28;20037;-82
2022/10/15 14:17:07;;;;;;;1.52;0.88;;;;;;;;;;5008159;28;20128;-82
2022/10/15 14:19:36;;;;;;;2.33;0.90;;;;;;;;;;5011054;28;20053;-82
2022/10/15 14:22:02;;;;;;;2.05;0.80;;;;;;;;;;5023667;28;20166;-82
2022/10/15 14:24:32;;;;;;;1.95;1.23;;;;;;;;;;5014886;28;20120;-82
2022/10/15 14:27:17;;;;;;;2.35;0.98;;;;;;;;;;5013035;28;20021;-82
2022/10/15 14:29:44;;;;;;;1.73;1.00;;;;;;;;;;5016588;28;20073;-82
2022/10/15 14:32:26;;;;;;;5.18;1.30;;;;;;;;;;5016862;28;20035;-82
2022/10/15 14:34:57;;;;;;;2.00;0.93;;;;;;;;;;5010576;28;20072;-82
2022/10/15 14:37:35;;;;;;;2.05;1.00;;;;;;;;;;5014256;28;20120;-82
2022/10/15 14:40:09;;;;;;;0.98;0.77;;;;;;;;;;5012001;28;20532;-82
2022/10/15 14:43:02;;;;;;;2.08;0.80;;;;;;;;;;5016037;28;20022;-82
2022/10/15 14:45:30;;;;;;;3.83;0.80;;;;;;;;;;5012729;28;20029;-83
2022/10/15 14:47:57;;;;;;;1.55;0.70;;;;;;;;;;5016375;28;20048;-82
2022/10/15 14:50:26;;;;;;;2.97;0.80;;;;;;;;;;5014719;28;20637;-82
2022/10/15 14:52:53;;;;;;;5.38;0.82;;;;;;;;;;5016117;28;20025;-82